Аэропорт: Нариманово. Астрахань

ICAO: URWA

METAR:
2021-04-21 21:00:00
URWA 212100Z 31003MPS 0900 R27/P2000N HZ VV004 12/03 Q1019 R27/010070 NOSIG RMK OBST OBSC QFE766/1021
METAR:
2021-04-21 20:00:00
TAF URWA 212000Z 2121/2206 33003G08MPS 0600 HZ VV003 TEMPO 2123/2202 1500 HZ BKN005 BECMG 2202/2205 3000 HZ FEW007